Time;durP1;ratioP1;P1;durP2;ratioP2;P2;SDS_P1;SDS_P2;PMS_P1;PMS_P2;Temp;Humidity;BMP_temperature;BMP_pressure;BME280_temperature;BME280_humidity;BME280_pressure;Samples;Min_cycle;Max_cycle;Signal;HPM_P1;HPM_P2
2023/12/06 00:00:41;;;;;;;88.85;50.35;;;0.40;99.90;;;;;;5094947;28;20031;-70
2023/12/06 00:03:06;;;;;;;89.25;50.50;;;0.40;99.90;;;;;;5094697;28;20050;-70
2023/12/06 00:05:32;;;;;;;86.13;49.47;;;0.40;99.90;;;;;;5077882;28;20043;-70
2023/12/06 00:07:58;;;;;;;87.95;49.25;;;0.40;99.90;;;;;;5094958;28;20055;-70
2023/12/06 00:10:24;;;;;;;88.78;52.03;;;0.40;99.90;;;;;;5080019;28;20039;-70
2023/12/06 00:12:50;;;;;;;91.20;50.97;;;0.40;99.90;;;;;;5082243;28;20104;-70
2023/12/06 00:15:16;;;;;;;88.63;49.22;;;0.40;99.90;;;;;;5099015;28;20097;-70
2023/12/06 00:17:41;;;;;;;84.10;48.85;;;0.40;99.90;;;;;;5082107;28;20039;-70
2023/12/06 00:20:08;;;;;;;82.18;48.53;;;0.40;99.90;;;;;;5081545;28;20078;-70
2023/12/06 00:22:33;;;;;;;79.70;46.58;;;0.40;99.90;;;;;;5098446;28;20122;-70
2023/12/06 00:24:59;;;;;;;81.07;47.33;;;0.40;99.90;;;;;;5098783;28;20118;-71
2023/12/06 00:27:25;;;;;;;82.53;48.92;;;0.40;99.90;;;;;;5064929;28;20130;-70
2023/12/06 00:29:51;;;;;;;83.25;48.55;;;0.40;99.90;;;;;;5081498;28;20043;-70
2023/12/06 00:32:16;;;;;;;85.13;49.45;;;0.40;99.90;;;;;;5081388;28;20528;-71
2023/12/06 00:34:42;;;;;;;82.95;47.53;;;0.40;99.90;;;;;;5081347;28;20074;-71
2023/12/06 00:37:08;;;;;;;80.65;47.75;;;0.40;99.90;;;;;;5098302;28;20088;-70
2023/12/06 00:39:33;;;;;;;81.43;48.20;;;0.40;99.90;;;;;;5081707;28;20039;-70
2023/12/06 00:41:59;;;;;;;79.90;48.63;;;0.40;99.90;;;;;;5098268;28;20039;-70
2023/12/06 00:44:25;;;;;;;80.72;47.22;;;0.40;99.90;;;;;;5098070;28;20066;-70
2023/12/06 00:46:51;;;;;;;82.03;47.97;;;0.40;99.90;;;;;;5098114;28;20122;-71
2023/12/06 00:49:18;;;;;;;80.43;48.47;;;0.40;99.90;;;;;;5098061;28;20042;-70
2023/12/06 00:51:44;;;;;;;79.65;47.53;;;0.40;99.90;;;;;;5081455;28;20092;-70
2023/12/06 00:54:10;;;;;;;82.43;49.05;;;0.60;99.90;;;;;;5097762;28;20052;-71
2023/12/06 00:56:35;;;;;;;82.35;49.45;;;0.50;99.90;;;;;;5097993;28;20123;-70
2023/12/06 00:59:01;;;;;;;81.65;48.70;;;0.50;99.90;;;;;;5097990;28;20433;-70
2023/12/06 01:01:27;;;;;;;82.40;48.47;;;0.50;99.90;;;;;;5097782;28;20078;-70
2023/12/06 01:03:53;;;;;;;78.72;47.90;;;0.50;99.90;;;;;;5080943;28;20123;-70
2023/12/06 01:06:18;;;;;;;79.88;48.25;;;0.50;99.90;;;;;;5080830;28;20043;-70
2023/12/06 01:08:44;;;;;;;79.20;47.47;;;0.50;99.90;;;;;;5081002;28;20040;-70
2023/12/06 01:11:10;;;;;;;82.10;48.25;;;0.50;99.90;;;;;;5097615;28;20040;-70
2023/12/06 01:13:35;;;;;;;79.78;47.70;;;0.50;99.90;;;;;;5097489;28;20093;-71
2023/12/06 01:16:01;;;;;;;79.28;48.80;;;0.50;99.90;;;;;;5097350;28;20066;-71
2023/12/06 01:18:27;;;;;;;80.93;49.05;;;0.50;99.90;;;;;;5097526;28;20491;-70
2023/12/06 01:20:53;;;;;;;79.63;48.00;;;0.50;99.90;;;;;;5080485;28;20482;-70
2023/12/06 01:23:18;;;;;;;84.93;49.70;;;0.50;99.90;;;;;;5063826;28;20039;-70
2023/12/06 01:25:44;;;;;;;83.03;48.53;;;0.50;99.90;;;;;;5080615;28;20086;-70
2023/12/06 01:28:10;;;;;;;83.30;49.63;;;0.50;99.90;;;;;;5080447;28;20043;-70
2023/12/06 01:30:36;;;;;;;81.05;48.85;;;0.50;99.90;;;;;;5097250;28;20509;-70
2023/12/06 01:33:02;;;;;;;82.60;48.85;;;0.60;99.90;;;;;;5097319;28;20035;-70
2023/12/06 01:35:27;;;;;;;81.50;48.15;;;0.60;99.90;;;;;;5080634;28;20544;-70
2023/12/06 01:37:53;;;;;;;82.53;49.05;;;0.50;99.90;;;;;;5097147;28;20122;-71
2023/12/06 01:40:19;;;;;;;84.85;48.42;;;0.60;99.90;;;;;;5097292;28;20039;-70
2023/12/06 01:42:46;;;;;;;82.25;48.75;;;0.60;99.90;;;;;;5080209;28;20042;-70
2023/12/06 01:45:12;;;;;;;83.53;49.13;;;0.50;99.90;;;;;;5097311;28;20487;-71
2023/12/06 01:47:39;;;;;;;79.53;49.00;;;0.60;99.90;;;;;;5096872;28;20044;-70
2023/12/06 01:50:07;;;;;;;84.72;50.15;;;0.60;99.90;;;;;;5080163;28;20075;-70
2023/12/06 01:52:33;;;;;;;79.45;49.17;;;0.60;99.90;;;;;;5096663;28;20128;-70
2023/12/06 01:54:59;;;;;;;91.95;51.88;;;0.60;99.90;;;;;;5096967;28;20373;-70
2023/12/06 01:57:29;;;;;;;83.40;49.28;;;0.60;99.90;;;;;;5096756;28;20050;-70
2023/12/06 01:59:56;;;;;;;83.35;49.10;;;0.60;99.90;;;;;;5079902;28;20039;-70
2023/12/06 02:02:23;;;;;;;84.30;50.22;;;0.60;99.90;;;;;;5096856;28;20065;-70
2023/12/06 02:04:49;;;;;;;84.35;49.30;;;0.60;99.90;;;;;;5096638;28;20071;-70
2023/12/06 02:07:15;;;;;;;86.18;50.13;;;0.60;99.90;;;;;;5096541;28;20082;-70
2023/12/06 02:09:41;;;;;;;85.25;49.47;;;0.90;99.90;;;;;;5079994;28;20395;-69
2023/12/06 02:12:07;;;;;;;91.00;51.38;;;0.60;99.90;;;;;;5096317;28;20036;-70
2023/12/06 02:14:35;;;;;;;88.97;51.13;;;0.60;99.90;;;;;;5096325;28;20495;-70
2023/12/06 02:17:05;;;;;;;86.05;49.63;;;0.60;99.90;;;;;;5079451;28;20122;-70
2023/12/06 02:19:31;;;;;;;96.50;51.80;;;0.70;99.90;;;;;;5096448;28;20035;-73
2023/12/06 02:21:58;;;;;;;98.85;51.78;;;0.60;99.90;;;;;;5079427;28;20035;-73
2023/12/06 02:24:29;;;;;;;98.50;52.40;;;0.60;99.90;;;;;;5096149;28;20032;-73
2023/12/06 02:26:56;;;;;;;92.35;52.22;;;0.70;99.90;;;;;;5096242;28;20043;-73
2023/12/06 02:29:24;;;;;;;88.55;49.70;;;0.70;99.90;;;;;;5096081;28;20043;-73
2023/12/06 02:31:50;;;;;;;95.15;52.05;;;0.70;99.90;;;;;;5095469;28;20039;-73
2023/12/06 02:34:23;;;;;;;88.47;50.38;;;0.60;99.90;;;;;;5095667;28;20063;-72
2023/12/06 02:36:52;;;;;;;94.25;51.28;;;0.70;99.90;;;;;;5095799;28;20118;-72
2023/12/06 02:39:17;;;;;;;90.13;50.70;;;0.70;99.90;;;;;;5079448;28;20467;-73
2023/12/06 02:41:44;;;;;;;91.55;50.38;;;0.70;99.90;;;;;;5079016;28;20081;-73
2023/12/06 02:44:10;;;;;;;93.22;51.95;;;0.70;99.90;;;;;;5095931;28;20039;-73
2023/12/06 02:46:37;;;;;;;90.97;50.72;;;0.70;99.90;;;;;;5095821;28;20108;-74
2023/12/06 02:49:03;;;;;;;88.55;50.95;;;0.70;99.90;;;;;;5078908;28;20039;-74
2023/12/06 02:51:29;;;;;;;89.50;48.92;;;0.70;99.90;;;;;;5095717;28;20103;-74
2023/12/06 02:53:55;;;;;;;86.97;49.97;;;0.70;99.90;;;;;;5095541;28;20453;-74
2023/12/06 02:56:20;;;;;;;89.95;49.53;;;0.70;99.90;;;;;;5095621;28;20048;-73
2023/12/06 02:58:46;;;;;;;85.43;49.40;;;0.70;99.90;;;;;;5095610;28;20554;-73
2023/12/06 03:01:12;;;;;;;93.05;51.83;;;0.70;99.90;;;;;;5095598;28;20035;-73
2023/12/06 03:03:38;;;;;;;92.65;50.95;;;0.70;99.90;;;;;;5096190;28;20032;-74
2023/12/06 03:06:04;;;;;;;83.32;48.20;;;0.70;99.90;;;;;;5095759;28;20039;-73
2023/12/06 03:08:29;;;;;;;92.25;50.08;;;0.70;99.90;;;;;;5095626;28;20089;-73
2023/12/06 03:10:55;;;;;;;91.82;49.63;;;0.70;99.90;;;;;;5078650;28;20075;-73
2023/12/06 03:13:21;;;;;;;93.88;49.45;;;0.80;99.90;;;;;;5095281;28;20078;-73
2023/12/06 03:15:47;;;;;;;90.38;50.60;;;0.70;99.90;;;;;;5095211;28;20043;-73
2023/12/06 03:18:12;;;;;;;86.28;48.65;;;0.80;99.90;;;;;;5095318;28;20032;-73
2023/12/06 03:20:38;;;;;;;102.65;52.45;;;0.80;99.90;;;;;;5078467;28;20043;-73
2023/12/06 03:23:04;;;;;;;92.13;50.55;;;0.70;99.90;;;;;;5095553;28;20127;-73
2023/12/06 03:25:30;;;;;;;89.28;48.58;;;0.80;99.90;;;;;;5095198;28;20043;-73
2023/12/06 03:27:56;;;;;;;94.93;50.92;;;0.80;99.90;;;;;;5095399;28;20058;-73
2023/12/06 03:30:23;;;;;;;89.32;49.03;;;0.80;99.90;;;;;;5061803;28;20035;-70
2023/12/06 03:32:49;;;;;;;90.75;50.47;;;0.80;99.90;;;;;;5062013;28;20039;-69
2023/12/06 03:35:15;;;;;;;106.22;50.85;;;0.80;99.90;;;;;;5095170;28;20047;-70
2023/12/06 03:37:41;;;;;;;95.85;50.08;;;0.80;99.90;;;;;;5078229;28;20054;-69
2023/12/06 03:40:07;;;;;;;101.47;51.05;;;0.90;99.90;;;;;;5095071;28;20123;-69
2023/12/06 03:42:33;;;;;;;91.32;48.45;;;0.80;99.90;;;;;;5078276;28;20470;-70
2023/12/06 03:44:59;;;;;;;94.97;50.03;;;0.80;99.90;;;;;;5094886;28;20071;-70
2023/12/06 03:47:25;;;;;;;100.78;50.22;;;0.80;99.90;;;;;;5078214;28;20043;-69
2023/12/06 03:49:52;;;;;;;102.13;50.58;;;0.90;99.90;;;;;;5078027;28;20044;-70
2023/12/06 03:52:17;;;;;;;94.22;48.70;;;0.80;99.90;;;;;;5094773;28;20085;-70
2023/12/06 03:54:44;;;;;;;93.80;49.22;;;0.80;99.90;;;;;;5094822;28;20083;-70
2023/12/06 03:57:09;;;;;;;98.00;50.38;;;0.90;99.90;;;;;;5094808;28;20035;-69
2023/12/06 03:59:35;;;;;;;95.60;49.17;;;0.80;99.90;;;;;;5077916;28;20047;-70
2023/12/06 04:02:01;;;;;;;100.63;50.78;;;0.80;99.90;;;;;;5077992;28;20074;-70
2023/12/06 04:04:26;;;;;;;96.50;49.42;;;0.90;99.90;;;;;;5077866;28;20570;-70
2023/12/06 04:06:52;;;;;;;92.20;48.45;;;1.00;99.90;;;;;;5061254;28;20109;-69
2023/12/06 04:09:18;;;;;;;97.75;49.67;;;0.90;99.90;;;;;;5077788;28;20039;-70
2023/12/06 04:11:44;;;;;;;90.75;49.22;;;0.90;99.90;;;;;;5094623;28;20050;-70
2023/12/06 04:14:10;;;;;;;93.53;48.55;;;0.80;99.90;;;;;;5061433;28;20395;-70
2023/12/06 04:16:36;;;;;;;91.53;48.75;;;0.90;99.90;;;;;;5061035;28;20043;-69
2023/12/06 04:19:02;;;;;;;92.13;47.78;;;0.80;99.90;;;;;;5078108;28;20434;-70
2023/12/06 04:21:28;;;;;;;90.35;47.60;;;0.90;99.90;;;;;;5077781;28;20040;-70
2023/12/06 04:23:54;;;;;;;85.63;46.33;;;0.80;99.90;;;;;;5077716;28;20043;-69
2023/12/06 04:26:21;;;;;;;79.75;45.92;;;0.90;99.90;;;;;;5077706;28;20043;-70
2023/12/06 04:28:47;;;;;;;80.55;46.08;;;0.90;99.90;;;;;;5094698;28;20518;-70
2023/12/06 04:31:13;;;;;;;76.30;44.42;;;0.80;99.90;;;;;;5078022;28;20047;-69
2023/12/06 04:33:40;;;;;;;78.38;44.70;;;0.90;99.90;;;;;;5094552;28;20127;-69
2023/12/06 04:36:06;;;;;;;80.13;44.85;;;0.90;99.90;;;;;;5077965;28;20496;-69
2023/12/06 04:38:32;;;;;;;78.18;44.30;;;0.80;99.90;;;;;;5094534;28;20108;-74
2023/12/06 04:40:58;;;;;;;80.53;44.20;;;0.90;99.90;;;;;;5061177;28;20040;-74
2023/12/06 04:43:24;;;;;;;72.78;42.15;;;0.90;99.90;;;;;;5094719;28;20068;-73
2023/12/06 04:45:50;;;;;;;75.75;42.65;;;0.90;99.90;;;;;;5077437;28;20126;-73
2023/12/06 04:48:15;;;;;;;75.22;42.15;;;0.90;99.90;;;;;;5094474;28;20043;-73
2023/12/06 04:50:41;;;;;;;71.20;40.72;;;0.90;99.90;;;;;;5077919;28;20039;-73
2023/12/06 04:53:07;;;;;;;68.70;40.17;;;0.80;99.90;;;;;;5077365;28;20130;-73
2023/12/06 04:55:33;;;;;;;67.85;39.67;;;0.90;99.90;;;;;;5078167;28;20047;-73
2023/12/06 04:57:59;;;;;;;69.85;41.00;;;0.80;99.90;;;;;;5081244;28;20064;-73
2023/12/06 05:00:26;;;;;;;66.50;39.53;;;0.80;99.90;;;;;;5081257;28;20035;-73
2023/12/06 05:02:52;;;;;;;70.13;40.85;;;0.80;99.90;;;;;;5081125;28;20487;-73
2023/12/06 05:05:17;;;;;;;65.85;39.75;;;0.80;99.90;;;;;;5098020;28;20173;-73
2023/12/06 05:07:43;;;;;;;68.88;39.30;;;0.80;99.90;;;;;;5097699;28;20039;-74
2023/12/06 05:10:09;;;;;;;66.45;40.10;;;0.90;99.90;;;;;;5097646;28;20093;-73
2023/12/06 05:12:35;;;;;;;59.53;37.13;;;0.90;99.90;;;;;;5064062;28;20036;-73
2023/12/06 05:15:00;;;;;;;64.47;38.83;;;0.90;99.90;;;;;;5080838;28;20046;-74
2023/12/06 05:17:26;;;;;;;70.15;40.22;;;0.90;99.90;;;;;;5097462;28;20120;-74
2023/12/06 05:19:52;;;;;;;68.43;40.53;;;0.90;99.90;;;;;;5080953;28;20459;-73
2023/12/06 05:22:17;;;;;;;64.63;39.40;;;0.90;99.90;;;;;;5097709;28;20035;-74
2023/12/06 05:24:43;;;;;;;67.00;40.35;;;0.90;99.90;;;;;;5080590;28;20031;-73
2023/12/06 05:27:09;;;;;;;61.25;37.58;;;0.90;99.90;;;;;;5080381;28;20040;-73
2023/12/06 05:29:35;;;;;;;65.65;39.28;;;1.00;99.90;;;;;;5080500;28;20054;-74
2023/12/06 05:32:02;;;;;;;71.35;40.45;;;0.90;99.90;;;;;;5080353;28;20487;-73
2023/12/06 05:34:27;;;;;;;60.95;38.65;;;0.90;99.90;;;;;;5080758;28;20050;-74
2023/12/06 05:36:53;;;;;;;71.57;40.45;;;0.90;99.90;;;;;;5080344;28;20126;-74
2023/12/06 05:39:19;;;;;;;64.53;39.10;;;0.90;99.90;;;;;;5080363;28;20044;-74
2023/12/06 05:41:44;;;;;;;63.58;38.30;;;1.00;99.90;;;;;;5080506;28;20127;-74
2023/12/06 05:44:10;;;;;;;60.22;37.70;;;0.90;99.90;;;;;;5097215;28;20040;-74
2023/12/06 05:46:36;;;;;;;64.90;39.22;;;0.90;99.90;;;;;;5080634;28;20529;-74
2023/12/06 05:49:01;;;;;;;62.60;37.63;;;0.90;99.90;;;;;;5080513;28;20558;-70
2023/12/06 05:51:27;;;;;;;62.65;38.95;;;0.90;99.90;;;;;;5080058;28;20043;-70
2023/12/06 05:53:53;;;;;;;65.22;37.75;;;0.90;99.90;;;;;;5079715;28;20056;-70
2023/12/06 05:56:19;;;;;;;61.13;38.63;;;0.90;99.90;;;;;;5079916;28;20043;-69
2023/12/06 05:58:45;;;;;;;62.85;39.17;;;0.90;99.90;;;;;;5096761;28;20564;-69
2023/12/06 06:01:11;;;;;;;63.15;39.83;;;1.00;99.90;;;;;;5096612;28;20039;-70
2023/12/06 06:03:37;;;;;;;59.35;38.50;;;0.90;99.90;;;;;;5080086;28;20039;-69
2023/12/06 06:06:07;;;;;;;58.90;38.05;;;1.00;99.90;;;;;;5096971;28;20039;-70
2023/12/06 06:08:34;;;;;;;63.45;39.13;;;1.00;99.90;;;;;;5096462;28;20050;-69
2023/12/06 06:11:04;;;;;;;65.55;40.97;;;1.00;99.90;;;;;;5079686;28;20035;-70
2023/12/06 06:13:30;;;;;;;68.18;40.95;;;0.90;99.90;;;;;;5096370;28;20040;-70
2023/12/06 06:15:57;;;;;;;62.47;38.70;;;1.00;99.90;;;;;;5079549;28;20051;-70
2023/12/06 06:18:23;;;;;;;60.17;37.55;;;1.00;99.90;;;;;;5096712;28;20406;-70
2023/12/06 06:20:49;;;;;;;59.17;38.00;;;1.00;99.90;;;;;;5096538;28;20032;-70
2023/12/06 06:23:15;;;;;;;59.90;39.13;;;1.00;99.90;;;;;;5062799;28;20559;-70
2023/12/06 06:25:40;;;;;;;60.17;39.92;;;1.00;99.90;;;;;;5079707;28;20096;-70
2023/12/06 06:28:06;;;;;;;61.80;39.13;;;0.90;99.90;;;;;;5079272;28;20044;-70
2023/12/06 06:30:32;;;;;;;62.20;38.90;;;1.00;99.90;;;;;;5079267;28;20496;-70
2023/12/06 06:32:58;;;;;;;61.03;38.53;;;0.90;99.90;;;;;;5079490;28;20047;-70
2023/12/06 06:35:24;;;;;;;63.03;39.75;;;1.20;99.90;;;;;;5096228;28;20040;-71
2023/12/06 06:37:50;;;;;;;58.38;37.30;;;1.00;99.90;;;;;;5079404;28;20040;-71
2023/12/06 06:40:16;;;;;;;58.00;37.58;;;1.00;99.90;;;;;;5095969;28;20043;-70
2023/12/06 06:42:42;;;;;;;60.75;38.10;;;1.00;99.90;;;;;;5096250;28;20479;-70
2023/12/06 06:45:11;;;;;;;55.10;36.55;;;1.00;99.90;;;;;;5096062;28;20031;-70
2023/12/06 06:47:37;;;;;;;59.20;38.85;;;1.00;99.90;;;;;;5079027;28;20043;-70
2023/12/06 06:50:04;;;;;;;60.47;39.10;;;1.00;99.90;;;;;;5096131;28;20032;-70
2023/12/06 06:52:32;;;;;;;59.72;37.80;;;1.00;99.90;;;;;;5078796;28;20042;-71
2023/12/06 06:54:58;;;;;;;54.60;36.67;;;1.00;99.90;;;;;;5095620;28;20100;-70
2023/12/06 06:57:24;;;;;;;56.60;37.20;;;1.00;99.90;;;;;;5078676;28;20047;-70
2023/12/06 06:59:49;;;;;;;59.60;38.70;;;1.00;99.90;;;;;;5095619;28;20043;-71
2023/12/06 07:02:16;;;;;;;59.83;37.35;;;1.00;99.90;;;;;;5095593;28;20394;-69
2023/12/06 07:04:43;;;;;;;59.92;37.40;;;1.00;99.90;;;;;;5095467;28;20144;-70
2023/12/06 07:07:09;;;;;;;57.25;37.97;;;1.00;99.90;;;;;;5062324;28;20082;-70
2023/12/06 07:09:35;;;;;;;56.88;37.38;;;1.00;99.90;;;;;;5095504;28;20538;-69
2023/12/06 07:12:02;;;;;;;61.97;38.50;;;1.00;99.90;;;;;;5095434;28;20122;-71
2023/12/06 07:14:27;;;;;;;57.30;37.38;;;1.00;99.90;;;;;;5095529;28;20044;-68
2023/12/06 07:16:54;;;;;;;56.00;36.03;;;1.00;99.90;;;;;;5078415;28;20043;-69
2023/12/06 07:19:21;;;;;;;57.35;37.63;;;1.00;99.90;;;;;;5095013;28;20394;-69
2023/12/06 07:21:46;;;;;;;56.92;37.22;;;1.10;99.90;;;;;;5095253;28;20035;-70
2023/12/06 07:24:12;;;;;;;59.33;38.38;;;1.00;99.90;;;;;;5078566;28;20510;-69
2023/12/06 07:26:39;;;;;;;56.17;37.05;;;1.00;99.90;;;;;;5095134;28;20055;-69
2023/12/06 07:29:05;;;;;;;56.00;36.63;;;1.00;99.90;;;;;;5095400;28;20051;-69
2023/12/06 07:31:31;;;;;;;55.05;37.45;;;1.00;99.90;;;;;;5095010;28;20035;-69
2023/12/06 07:33:57;;;;;;;58.42;37.65;;;1.10;99.90;;;;;;5061950;28;20070;-69
2023/12/06 07:36:23;;;;;;;57.70;38.10;;;1.10;99.90;;;;;;5034677;28;20551;-69
2023/12/06 07:38:49;;;;;;;56.90;38.55;;;1.00;99.90;;;;;;5095203;28;20036;-69
2023/12/06 07:41:15;;;;;;;55.60;36.95;;;1.10;99.90;;;;;;5078148;28;20075;-69
2023/12/06 07:43:41;;;;;;;54.22;36.15;;;1.10;99.90;;;;;;5095052;28;20032;-69
2023/12/06 07:46:08;;;;;;;56.55;37.50;;;1.10;99.90;;;;;;5094919;28;20040;-69
2023/12/06 07:48:34;;;;;;;55.05;36.83;;;1.10;99.90;;;;;;5094762;28;20043;-69
2023/12/06 07:51:01;;;;;;;51.40;36.08;;;1.10;99.90;;;;;;5094826;28;20502;-70
2023/12/06 07:53:27;;;;;;;58.78;38.50;;;1.10;99.90;;;;;;5094618;28;20131;-71
2023/12/06 07:55:55;;;;;;;54.35;36.78;;;1.10;99.90;;;;;;5094880;28;20123;-69
2023/12/06 07:58:22;;;;;;;52.55;34.90;;;1.10;99.90;;;;;;5078426;28;20051;-70
2023/12/06 08:00:48;;;;;;;53.22;36.35;;;1.10;99.90;;;;;;5095001;28;20499;-69
2023/12/06 08:03:14;;;;;;;56.05;37.45;;;1.10;99.90;;;;;;5077977;28;20067;-70
2023/12/06 08:05:40;;;;;;;55.20;36.75;;;1.10;99.90;;;;;;5067723;28;20086;-70
2023/12/06 08:08:06;;;;;;;49.75;35.67;;;1.10;99.90;;;;;;5074522;28;20055;-74
2023/12/06 08:10:33;;;;;;;51.60;36.55;;;1.30;99.90;;;;;;5058172;28;20112;-70
2023/12/06 08:13:00;;;;;;;51.90;36.00;;;1.10;99.90;;;;;;5074731;28;20043;-70
2023/12/06 08:15:27;;;;;;;52.95;37.28;;;1.20;99.90;;;;;;5074922;28;20044;-70
2023/12/06 08:17:53;;;;;;;54.97;36.78;;;1.20;99.90;;;;;;5041438;28;20048;-70
2023/12/06 08:20:19;;;;;;;59.25;38.30;;;1.20;99.90;;;;;;5094121;28;20123;-70
2023/12/06 08:22:45;;;;;;;52.95;36.50;;;1.20;99.90;;;;;;5077949;28;20046;-70
2023/12/06 08:25:11;;;;;;;54.60;37.25;;;1.30;99.90;;;;;;5094819;28;20130;-70
2023/12/06 08:27:38;;;;;;;51.85;35.60;;;1.30;99.90;;;;;;5077539;28;20074;-70
2023/12/06 08:30:06;;;;;;;55.58;36.90;;;1.30;99.90;;;;;;5094718;28;20083;-70
2023/12/06 08:32:32;;;;;;;55.83;37.03;;;1.30;99.90;;;;;;5098319;28;20044;-70
2023/12/06 08:34:58;;;;;;;47.53;35.22;;;1.30;99.90;;;;;;5081598;28;20047;-70
2023/12/06 08:37:25;;;;;;;56.45;37.60;;;1.30;99.90;;;;;;5098366;28;20040;-70
2023/12/06 08:39:51;;;;;;;54.15;36.72;;;1.30;99.90;;;;;;5081655;28;20051;-70
2023/12/06 08:42:17;;;;;;;56.40;37.03;;;1.30;99.90;;;;;;5098519;28;20032;-71
2023/12/06 08:44:43;;;;;;;54.35;35.90;;;1.30;99.90;;;;;;5081580;28;20044;-70
2023/12/06 08:47:09;;;;;;;53.75;36.40;;;1.40;99.90;;;;;;5081539;28;20173;-70
2023/12/06 08:49:39;;;;;;;53.22;36.15;;;1.40;99.90;;;;;;5081706;28;20043;-70
2023/12/06 08:52:06;;;;;;;51.40;35.67;;;1.40;99.90;;;;;;5081351;28;20043;-70
2023/12/06 08:54:33;;;;;;;57.92;38.50;;;1.40;99.90;;;;;;5097971;28;20063;-70
2023/12/06 08:56:59;;;;;;;51.35;36.03;;;1.40;99.90;;;;;;5098048;28;20038;-70
2023/12/06 08:59:25;;;;;;;54.90;36.28;;;1.50;99.90;;;;;;5081288;28;20502;-70
2023/12/06 09:01:51;;;;;;;52.78;35.95;;;1.50;99.90;;;;;;5081620;28;20081;-70
2023/12/06 09:04:17;;;;;;;51.30;35.85;;;1.50;99.90;;;;;;5097761;28;20031;-70
2023/12/06 09:06:43;;;;;;;50.70;36.55;;;1.50;99.90;;;;;;5064113;28;20046;-70
2023/12/06 09:09:08;;;;;;;52.63;36.17;;;1.50;99.90;;;;;;5080889;28;20122;-70
2023/12/06 09:11:34;;;;;;;49.60;35.85;;;1.50;99.90;;;;;;5097954;28;20031;-70
2023/12/06 09:14:00;;;;;;;52.50;37.97;;;1.60;99.90;;;;;;5097870;28;20130;-70
2023/12/06 09:16:26;;;;;;;51.03;36.70;;;1.60;99.90;;;;;;5097670;28;20039;-70
2023/12/06 09:18:51;;;;;;;51.80;36.45;;;1.60;99.90;;;;;;5097313;28;20036;-69
2023/12/06 09:21:17;;;;;;;50.85;36.03;;;1.70;99.90;;;;;;5096858;28;20039;-70
2023/12/06 09:23:43;;;;;;;50.05;36.42;;;1.60;99.90;;;;;;5063175;28;20040;-72
2023/12/06 09:26:09;;;;;;;53.45;35.65;;;1.70;99.90;;;;;;5080817;28;20031;-69
2023/12/06 09:28:38;;;;;;;50.22;35.30;;;1.70;99.90;;;;;;5080651;28;20043;-71
2023/12/06 09:31:05;;;;;;;47.95;35.05;;;1.70;99.90;;;;;;5097636;28;20510;-68
2023/12/06 09:33:31;;;;;;;50.10;34.00;;;1.80;99.90;;;;;;5080635;28;20040;-69
2023/12/06 09:35:57;;;;;;;48.17;32.80;;;1.80;99.90;;;;;;5097181;28;20043;-69
2023/12/06 09:38:23;;;;;;;44.35;33.50;;;1.80;99.90;;;;;;5080363;28;20407;-69
2023/12/06 09:40:48;;;;;;;43.00;32.55;;;1.80;99.90;;;;;;5097154;28;20103;-69
2023/12/06 09:43:17;;;;;;;44.08;33.17;;;1.80;99.90;;;;;;5080168;28;20040;-69
2023/12/06 09:45:43;;;;;;;44.83;33.03;;;1.90;99.90;;;;;;5097116;28;20051;-69
2023/12/06 09:48:09;;;;;;;46.35;33.80;;;1.90;99.90;;;;;;5063556;28;20050;-69
2023/12/06 09:50:35;;;;;;;43.22;32.05;;;1.90;99.90;;;;;;5080265;28;20036;-70
2023/12/06 09:53:01;;;;;;;45.10;33.40;;;1.90;99.90;;;;;;5063429;28;20507;-70
2023/12/06 09:55:31;;;;;;;43.13;31.77;;;1.90;99.90;;;;;;5096662;28;20056;-69
2023/12/06 09:57:57;;;;;;;42.50;31.27;;;1.90;99.90;;;;;;5096865;28;20044;-69
2023/12/06 10:00:23;;;;;;;45.40;31.98;;;2.00;99.90;;;;;;5097038;28;20100;-69
2023/12/06 10:02:51;;;;;;;45.45;32.17;;;2.00;99.90;;;;;;5096810;28;20036;-69
2023/12/06 10:05:17;;;;;;;41.53;31.17;;;2.00;99.90;;;;;;5097044;28;20039;-69
2023/12/06 10:07:43;;;;;;;42.03;31.38;;;2.10;99.90;;;;;;5079751;28;20039;-69
2023/12/06 10:10:20;;;;;;;42.13;30.55;;;2.10;99.90;;;;;;5096704;28;20047;-69
2023/12/06 10:12:55;;;;;;;41.30;31.13;;;2.10;99.90;;;;;;5079942;28;20050;-69
2023/12/06 10:15:22;;;;;;;42.47;31.75;;;2.20;99.90;;;;;;5096487;28;20074;-69
2023/12/06 10:17:48;;;;;;;44.15;31.25;;;2.20;99.90;;;;;;5096493;28;20051;-70
2023/12/06 10:20:15;;;;;;;41.88;30.85;;;2.30;99.90;;;;;;5096373;28;20066;-69
2023/12/06 10:22:41;;;;;;;39.80;29.48;;;2.20;99.90;;;;;;5079745;28;20044;-69
2023/12/06 10:25:08;;;;;;;39.20;31.10;;;2.30;99.90;;;;;;5079614;28;20036;-70
2023/12/06 10:27:37;;;;;;;42.72;32.08;;;2.20;99.90;;;;;;5096197;28;20043;-70
2023/12/06 10:30:08;;;;;;;38.30;28.15;;;2.30;99.90;;;;;;5079664;28;20500;-74
2023/12/06 10:32:34;;;;;;;39.05;29.23;;;2.30;99.90;;;;;;5080479;28;20043;-77
2023/12/06 10:35:03;;;;;;;38.47;28.88;;;2.30;99.90;;;;;;5096727;28;20054;-76
2023/12/06 10:37:30;;;;;;;38.70;29.25;;;2.30;99.90;;;;;;5063109;28;20522;-76
2023/12/06 10:40:09;;;;;;;40.47;29.77;;;2.30;99.90;;;;;;5096267;28;20131;-75
2023/12/06 10:42:36;;;;;;;38.45;29.35;;;2.20;99.90;;;;;;5096546;28;20043;-75
2023/12/06 10:45:03;;;;;;;37.65;29.05;;;2.20;99.90;;;;;;5096521;28;20043;-75
2023/12/06 10:47:30;;;;;;;39.90;29.95;;;2.20;99.90;;;;;;5096008;28;20039;-75
2023/12/06 10:49:57;;;;;;;38.72;29.92;;;2.20;99.90;;;;;;5079215;28;20051;-75
2023/12/06 10:52:23;;;;;;;38.22;28.50;;;2.20;99.90;;;;;;5079309;28;20480;-75
2023/12/06 10:54:50;;;;;;;36.85;28.73;;;2.20;99.90;;;;;;5065316;28;20052;-75
2023/12/06 10:57:18;;;;;;;37.95;28.33;;;2.20;99.90;;;;;;5075490;28;20056;-76
2023/12/06 10:59:45;;;;;;;38.25;29.58;;;2.30;99.90;;;;;;5058868;28;20047;-75
2023/12/06 11:02:12;;;;;;;39.55;28.60;;;2.30;99.90;;;;;;5075766;28;20503;-74
2023/12/06 11:04:41;;;;;;;35.92;28.33;;;2.20;99.90;;;;;;5075768;28;20562;-75
2023/12/06 11:07:30;;;;;;;38.67;28.60;;;2.30;99.90;;;;;;5075641;28;20435;-74
2023/12/06 11:10:09;;;;;;;38.75;27.05;;;2.30;99.90;;;;;;5075579;28;20036;-75
2023/12/06 11:13:16;;;;;;;35.42;27.73;;;2.30;99.90;;;;;;5059246;28;20040;-75
2023/12/06 11:15:59;;;;;;;36.72;26.90;;;2.30;99.90;;;;;;5025889;28;20130;-74
2023/12/06 11:18:31;;;;;;;35.60;26.80;;;2.30;99.90;;;;;;5075259;28;20036;-77
2023/12/06 11:20:58;;;;;;;33.70;25.48;;;2.30;99.90;;;;;;5075247;28;20036;-76
2023/12/06 11:23:24;;;;;;;35.92;26.73;;;2.30;99.90;;;;;;5075282;28;20047;-75
2023/12/06 11:25:49;;;;;;;36.95;26.83;;;2.40;99.90;;;;;;5042111;28;20032;-75
2023/12/06 11:28:18;;;;;;;33.45;26.20;;;2.40;99.90;;;;;;5042243;28;20040;-74
2023/12/06 11:30:51;;;;;;;33.63;25.15;;;2.40;99.90;;;;;;5075284;28;20048;-75
2023/12/06 11:33:17;;;;;;;34.20;27.33;;;2.40;99.90;;;;;;5075487;28;20036;-74
2023/12/06 11:35:45;;;;;;;36.03;27.77;;;2.50;99.90;;;;;;5042464;28;20555;-75
2023/12/06 11:38:11;;;;;;;31.90;25.60;;;2.50;99.90;;;;;;5075723;28;20044;-69
2023/12/06 11:40:48;;;;;;;34.70;27.13;;;2.60;99.90;;;;;;5075184;28;20036;-75
2023/12/06 11:43:14;;;;;;;35.67;27.08;;;2.50;99.90;;;;;;5075436;28;20040;-75
2023/12/06 11:45:40;;;;;;;37.30;27.70;;;2.50;99.90;;;;;;5058684;28;20123;-75
2023/12/06 11:48:06;;;;;;;33.63;26.80;;;2.60;99.90;;;;;;5059226;28;20127;-76
2023/12/06 11:51:04;;;;;;;34.88;27.70;;;2.50;99.90;;;;;;5077538;28;20036;-76
2023/12/06 11:53:30;;;;;;;33.95;25.77;;;2.50;99.90;;;;;;5058047;28;20050;-77
2023/12/06 11:55:56;;;;;;;36.30;27.42;;;2.50;99.90;;;;;;5095701;28;20127;-75
2023/12/06 11:58:28;;;;;;;35.25;28.02;;;2.50;99.90;;;;;;5095430;28;20396;-76
2023/12/06 12:00:54;;;;;;;39.65;29.13;;;2.50;99.90;;;;;;5078712;28;20039;-77
2023/12/06 12:03:20;;;;;;;36.70;28.42;;;2.50;99.90;;;;;;5093457;28;20035;-76
2023/12/06 12:05:48;;;;;;;34.33;26.83;;;2.70;99.90;;;;;;5097932;28;20055;-76
2023/12/06 12:08:14;;;;;;;35.80;27.23;;;2.60;99.90;;;;;;5099601;28;20039;-69
2023/12/06 12:10:41;;;;;;;39.33;27.13;;;2.60;99.90;;;;;;5099181;28;20173;-70
2023/12/06 12:13:18;;;;;;;38.40;26.88;;;2.60;99.90;;;;;;5099378;27;20070;-69
2023/12/06 12:15:59;;;;;;;33.90;25.85;;;2.60;99.90;;;;;;5119238;27;20092;-70
2023/12/06 12:18:26;;;;;;;32.85;25.60;;;2.70;99.90;;;;;;5119295;27;20043;-76
2023/12/06 12:20:52;;;;;;;33.50;26.02;;;2.70;99.90;;;;;;5119582;27;20047;-77
2023/12/06 12:23:17;;;;;;;34.25;25.42;;;2.70;99.90;;;;;;5120134;27;20542;-76
2023/12/06 12:25:48;;;;;;;36.33;24.52;;;2.70;99.90;;;;;;5102755;27;20039;-77
2023/12/06 12:28:21;;;;;;;33.38;25.17;;;2.70;99.90;;;;;;5120255;27;20510;-70
2023/12/06 12:30:53;;;;;;;34.63;25.02;;;2.80;99.90;;;;;;5101965;27;20046;-69
2023/12/06 12:33:19;;;;;;;30.33;23.63;;;2.80;99.90;;;;;;5118774;27;20043;-69